Terminal Aerodrome Forecast
Issued by NWS

Home | Current Version | Previous Version | Text Only | Print | Product List | Glossary On
Versions: 1 2 3 4 5 6 7 8 9 10 11 12 13 14 15 16 17 18 19 20 21 22 23 24 25 26 27 28 29 30 31 32 33 34 35 36 37 38 39 40 41 42 43 44 45 46 47 48 49 50
000
FTAK31 PANC 230540
TAFAEN
TAF
PAEN 230540Z 2306/2406 21007KT 1/4SM FG BKN002
      TEMPO 2306/2309 1SM BR BKN007
     FM231800 VRB03KT P6SM BKN015
     FM232200 30005KT P6SM SCT015
     FM240500 02008KT P6SM -RA OVC040=

USA.gov is the U.S. government's official web portal to all federal, state and local government web resources and services.